createdAt,value
2023-05-24T00:01:14.051Z,13.70
2023-05-24T00:06:47.229Z,13.60
2023-05-24T00:12:06.005Z,13.60
2023-05-24T00:17:26.190Z,13.60
2023-05-24T00:23:08.013Z,13.50
2023-05-24T00:28:48.890Z,13.50
2023-05-24T00:34:34.877Z,13.40
2023-05-24T00:45:52.880Z,13.30
2023-05-24T00:51:23.056Z,13.20
2023-05-24T00:56:47.200Z,13.10
2023-05-24T01:02:21.064Z,13.10
2023-05-24T01:08:16.896Z,13.00
2023-05-24T01:13:54.164Z,13.00
2023-05-24T01:19:18.083Z,13.00
2023-05-24T01:24:52.306Z,12.90
2023-05-24T01:30:22.959Z,12.90
2023-05-24T01:35:33.538Z,12.90
2023-05-24T01:40:44.538Z,12.90
2023-05-24T01:46:16.429Z,12.90
2023-05-24T01:51:43.172Z,12.90
2023-05-24T01:57:00.271Z,12.80
2023-05-24T02:02:33.314Z,12.80
2023-05-24T02:08:16.834Z,12.70
2023-05-24T02:14:06.075Z,12.60
2023-05-24T02:19:46.576Z,12.60
2023-05-24T02:25:32.874Z,12.50
2023-05-24T02:31:03.292Z,12.40
2023-05-24T02:36:38.581Z,12.30
2023-05-24T02:42:13.705Z,12.20
2023-05-24T02:47:41.464Z,12.10
2023-05-24T02:53:06.035Z,12.00
2023-05-24T02:58:37.277Z,11.90
2023-05-24T03:04:10.565Z,11.80
2023-05-24T03:09:38.249Z,11.70
2023-05-24T03:14:49.727Z,11.60
2023-05-24T03:20:05.984Z,11.60
2023-05-24T03:25:20.047Z,11.50
2023-05-24T03:30:26.881Z,11.50
2023-05-24T03:35:48.057Z,11.40
2023-05-24T03:40:56.543Z,11.40
2023-05-24T03:46:11.027Z,11.30
2023-05-24T03:51:18.175Z,11.20
2023-05-24T03:56:32.255Z,11.10
2023-05-24T04:01:49.195Z,11.10
2023-05-24T04:07:22.065Z,11.00
2023-05-24T04:13:12.044Z,11.00
2023-05-24T04:18:30.825Z,10.90
2023-05-24T04:24:11.429Z,10.80
2023-05-24T04:29:33.579Z,10.80
2023-05-24T04:34:38.003Z,10.80
2023-05-24T04:39:52.290Z,10.80
2023-05-24T04:45:08.421Z,10.70
2023-05-24T04:50:14.126Z,10.80
2023-05-24T04:55:24.570Z,10.80
2023-05-24T05:00:37.761Z,10.80
2023-05-24T05:05:42.100Z,10.80
2023-05-24T05:10:54.713Z,10.80
2023-05-24T05:16:05.762Z,10.80
2023-05-24T05:21:12.180Z,10.80
2023-05-24T05:32:04.272Z,11.10
2023-05-24T05:37:21.269Z,11.20
2023-05-24T05:42:29.074Z,11.30
2023-05-24T05:47:34.674Z,11.40
2023-05-24T05:52:45.380Z,11.50
2023-05-24T05:57:55.167Z,11.50
2023-05-24T06:03:01.752Z,11.70
2023-05-24T06:08:35.289Z,11.90
2023-05-24T06:14:03.042Z,12.00
2023-05-24T06:19:23.772Z,12.20
2023-05-24T06:24:30.705Z,12.30
2023-05-24T06:29:55.450Z,12.50
2023-05-24T06:35:03.361Z,12.70
2023-05-24T06:40:16.540Z,12.80
2023-05-24T06:51:15.488Z,13.20
2023-05-24T06:56:48.338Z,13.30
2023-05-24T07:02:00.095Z,13.30
2023-05-24T07:07:21.724Z,13.40
2023-05-24T07:12:41.334Z,13.50
2023-05-24T07:17:53.053Z,13.50
2023-05-24T07:23:09.170Z,13.50
2023-05-24T07:28:20.725Z,13.50
2023-05-24T07:33:40.075Z,13.50
2023-05-24T07:38:51.065Z,13.60
2023-05-24T07:44:06.702Z,13.60
2023-05-24T07:49:26.046Z,13.60
2023-05-24T07:54:43.027Z,13.70
2023-05-24T08:00:07.357Z,13.80
2023-05-24T08:05:19.354Z,13.90
2023-05-24T08:10:33.245Z,14.10
2023-05-24T08:15:45.524Z,14.30
2023-05-24T08:21:18.826Z,14.60
2023-05-24T08:26:41.954Z,14.80
2023-05-24T08:32:09.411Z,14.90
2023-05-24T08:37:35.576Z,15.10
2023-05-24T08:43:06.443Z,15.20
2023-05-24T08:54:29.722Z,15.50
2023-05-24T09:00:12.439Z,15.70
2023-05-24T09:05:49.298Z,16.00
2023-05-24T09:11:28.352Z,16.30
2023-05-24T09:28:58.473Z,16.60
2023-05-24T09:34:59.026Z,16.60
2023-05-24T09:40:33.095Z,16.80
2023-05-24T09:45:50.297Z,16.90
2023-05-24T09:51:28.172Z,17.00
2023-05-24T10:03:13.676Z,17.00
2023-05-24T10:15:07.939Z,17.40
2023-05-24T10:20:52.707Z,17.70
2023-05-24T10:26:37.850Z,17.90
2023-05-24T10:43:22.112Z,18.30
2023-05-24T10:54:55.835Z,18.60
2023-05-24T11:11:54.830Z,19.10
2023-05-24T11:17:29.368Z,19.30
2023-05-24T11:23:05.189Z,19.30
2023-05-24T11:59:20.488Z,19.20
2023-05-24T12:05:38.204Z,19.30
2023-05-24T12:11:17.011Z,19.30
2023-05-24T12:16:49.526Z,19.30
2023-05-24T12:23:13.637Z,19.20
2023-05-24T12:34:45.732Z,19.10
2023-05-24T13:05:24.989Z,18.50
2023-05-24T13:10:57.481Z,18.50
2023-05-24T13:22:24.362Z,18.50
2023-05-24T13:28:04.101Z,18.50
2023-05-24T13:33:46.714Z,18.60
2023-05-24T13:39:32.422Z,18.70
2023-05-24T13:45:03.201Z,18.80
2023-05-24T13:50:37.532Z,19.10
2023-05-24T14:26:06.445Z,20.40
2023-05-24T14:32:34.163Z,20.50
2023-05-24T14:38:00.588Z,20.40
2023-05-24T14:50:12.575Z,20.20
2023-05-24T18:57:34.476Z,18.70
2023-05-24T22:41:17.189Z,13.90
2023-05-24T22:53:00.415Z,13.70
2023-05-24T23:28:37.324Z,13.20
2023-05-24T23:51:37.816Z,12.90
